createdAt,value
2023-05-03T00:01:21.936Z,5.63
2023-05-03T00:03:52.649Z,5.87
2023-05-03T00:06:20.111Z,5.37
2023-05-03T00:08:46.714Z,5.00
2023-05-03T00:11:13.518Z,5.03
2023-05-03T00:13:40.144Z,5.47
2023-05-03T00:16:06.895Z,6.03
2023-05-03T00:18:33.532Z,4.97
2023-05-03T00:21:00.219Z,4.80
2023-05-03T00:23:28.187Z,5.00
2023-05-03T00:25:56.239Z,5.37
2023-05-03T00:28:24.508Z,5.10
2023-05-03T00:30:51.323Z,4.93
2023-05-03T00:33:18.274Z,5.50
2023-05-03T00:35:45.523Z,5.00
2023-05-03T00:38:12.536Z,5.20
2023-05-03T00:40:39.167Z,4.43
2023-05-03T00:43:06.045Z,3.90
2023-05-03T00:45:34.215Z,5.93
2023-05-03T00:48:01.389Z,4.90
2023-05-03T00:50:28.364Z,5.00
2023-05-03T00:52:55.201Z,4.93
2023-05-03T00:55:21.761Z,5.00
2023-05-03T00:57:48.414Z,4.90
2023-05-03T01:00:18.181Z,5.80
2023-05-03T01:02:45.128Z,5.60
2023-05-03T01:05:11.944Z,4.97
2023-05-03T01:08:00.376Z,4.47
2023-05-03T01:10:34.909Z,4.20
2023-05-03T01:13:35.901Z,4.50
2023-05-03T01:16:11.823Z,3.97
2023-05-03T01:18:40.525Z,4.13
2023-05-03T01:21:07.550Z,4.80
2023-05-03T01:23:41.949Z,4.97
2023-05-03T01:26:24.624Z,3.80
2023-05-03T01:28:51.713Z,4.37
2023-05-03T01:31:23.237Z,4.37
2023-05-03T01:34:09.609Z,4.80
2023-05-03T01:36:37.108Z,4.93
2023-05-03T01:39:06.904Z,4.83
2023-05-03T01:41:34.473Z,4.30
2023-05-03T01:44:01.515Z,4.47
2023-05-03T01:46:28.101Z,5.17
2023-05-03T01:48:54.804Z,5.40
2023-05-03T01:51:21.305Z,5.90
2023-05-03T01:53:47.949Z,6.20
2023-05-03T01:56:14.856Z,11.77
2023-05-03T01:58:41.792Z,10.10
2023-05-03T02:01:08.379Z,7.80
2023-05-03T02:03:35.152Z,5.80
2023-05-03T02:06:01.831Z,5.80
2023-05-03T02:08:28.358Z,5.60
2023-05-03T02:10:55.009Z,4.60
2023-05-03T02:13:21.634Z,4.70
2023-05-03T02:15:48.717Z,5.40
2023-05-03T02:18:16.446Z,5.00
2023-05-03T02:20:46.740Z,4.90
2023-05-03T02:25:56.741Z,5.10
2023-05-03T02:28:23.922Z,4.83
2023-05-03T02:30:50.598Z,5.20
2023-05-03T02:33:17.335Z,4.73
2023-05-03T02:35:43.899Z,5.00
2023-05-03T02:38:10.611Z,4.70
2023-05-03T02:40:37.263Z,4.33
2023-05-03T02:43:03.963Z,4.07
2023-05-03T02:45:37.000Z,4.40
2023-05-03T02:48:03.992Z,4.93
2023-05-03T02:50:30.683Z,4.40
2023-05-03T02:52:57.319Z,5.03
2023-05-03T02:55:24.095Z,6.40
2023-05-03T02:57:50.994Z,5.57
2023-05-03T03:00:17.668Z,5.80
2023-05-03T03:02:44.458Z,5.20
2023-05-03T03:05:11.080Z,5.13
2023-05-03T03:07:39.020Z,5.50
2023-05-03T03:10:07.227Z,4.90
2023-05-03T03:12:36.205Z,4.90
2023-05-03T03:15:04.469Z,5.50
2023-05-03T03:17:32.382Z,5.60
2023-05-03T03:19:59.103Z,5.63
2023-05-03T03:22:25.783Z,5.90
2023-05-03T03:24:53.699Z,5.80
2023-05-03T03:27:21.674Z,5.70
2023-05-03T03:29:48.477Z,5.37
2023-05-03T03:32:15.793Z,5.47
2023-05-03T03:34:42.558Z,5.10
2023-05-03T03:37:09.315Z,5.10
2023-05-03T03:39:36.120Z,5.47
2023-05-03T03:42:03.314Z,5.00
2023-05-03T03:44:29.848Z,5.10
2023-05-03T03:46:56.521Z,4.70
2023-05-03T03:49:23.207Z,4.90
2023-05-03T03:51:49.859Z,5.43
2023-05-03T03:54:16.499Z,4.60
2023-05-03T03:56:43.351Z,6.03
2023-05-03T03:59:10.021Z,4.40
2023-05-03T04:01:36.681Z,4.63
2023-05-03T04:04:03.332Z,4.80
2023-05-03T04:06:30.197Z,4.30
2023-05-03T04:08:56.938Z,4.47
2023-05-03T04:11:23.620Z,5.30
2023-05-03T04:13:50.236Z,4.73
2023-05-03T04:16:17.246Z,5.60
2023-05-03T04:18:44.056Z,4.40
2023-05-03T04:21:10.837Z,4.70
2023-05-03T04:23:37.524Z,4.23
2023-05-03T04:26:05.230Z,5.10
2023-05-03T04:28:32.763Z,4.83
2023-05-03T04:30:59.465Z,4.90
2023-05-03T04:33:27.347Z,5.57
2023-05-03T04:35:53.951Z,5.03
2023-05-03T04:38:20.874Z,5.37
2023-05-03T04:40:47.656Z,5.40
2023-05-03T04:43:14.255Z,5.53
2023-05-03T04:45:41.938Z,5.93
2023-05-03T04:48:09.949Z,9.53
2023-05-03T04:50:36.639Z,7.70
2023-05-03T04:53:04.155Z,6.30
2023-05-03T04:55:30.847Z,5.90
2023-05-03T04:57:57.418Z,5.00
2023-05-03T05:00:25.307Z,5.37
2023-05-03T05:02:51.992Z,5.77
2023-05-03T05:05:20.242Z,5.10
2023-05-03T05:07:47.080Z,5.17
2023-05-03T05:10:15.345Z,5.43
2023-05-03T05:12:42.264Z,6.37
2023-05-03T05:15:09.496Z,5.33
2023-05-03T05:17:36.843Z,5.77
2023-05-03T05:20:07.180Z,5.20
2023-05-03T05:22:34.627Z,5.50
2023-05-03T05:25:01.576Z,4.90
2023-05-03T05:27:28.363Z,5.50
2023-05-03T05:29:55.041Z,5.60
2023-05-03T05:32:22.601Z,6.20
2023-05-03T05:34:55.525Z,5.20
2023-05-03T05:37:23.105Z,6.03
2023-05-03T05:39:50.191Z,6.17
2023-05-03T05:42:17.008Z,6.93
2023-05-03T05:44:44.148Z,5.70
2023-05-03T05:47:11.394Z,5.40
2023-05-03T05:49:38.210Z,5.70
2023-05-03T05:52:05.227Z,5.57
2023-05-03T05:54:31.785Z,6.13
2023-05-03T05:56:58.776Z,5.70
2023-05-03T05:59:25.583Z,4.57
2023-05-03T06:01:52.508Z,5.97
2023-05-03T06:04:19.109Z,5.20
2023-05-03T06:06:48.265Z,5.60
2023-05-03T06:09:24.212Z,5.50
2023-05-03T06:11:52.100Z,5.30
2023-05-03T06:14:20.789Z,6.20
2023-05-03T06:16:47.653Z,6.30
2023-05-03T06:19:14.381Z,6.87
2023-05-03T06:21:40.903Z,6.67
2023-05-03T06:24:07.810Z,7.30
2023-05-03T06:26:34.545Z,5.10
2023-05-03T06:29:03.331Z,6.77
2023-05-03T06:31:30.739Z,6.10
2023-05-03T06:33:57.426Z,7.10
2023-05-03T06:36:23.984Z,6.73
2023-05-03T06:38:51.112Z,6.33
2023-05-03T06:41:17.696Z,6.40
2023-05-03T06:43:44.293Z,5.70
2023-05-03T06:46:12.851Z,6.17
2023-05-03T06:48:39.542Z,7.00
2023-05-03T06:51:06.277Z,6.40
2023-05-03T06:53:32.862Z,7.23
2023-05-03T06:55:59.834Z,6.97
2023-05-03T06:58:26.465Z,6.80
2023-05-03T07:00:54.103Z,6.90
2023-05-03T07:03:21.367Z,6.80
2023-05-03T07:05:48.580Z,6.87
2023-05-03T07:08:15.114Z,6.93
2023-05-03T07:10:42.122Z,6.70
2023-05-03T07:13:09.102Z,6.17
2023-05-03T07:15:36.266Z,5.90
2023-05-03T07:18:03.539Z,6.10
2023-05-03T07:20:30.316Z,7.10
2023-05-03T07:22:57.652Z,6.17
2023-05-03T07:25:24.360Z,6.60
2023-05-03T07:27:51.019Z,6.40
2023-05-03T07:30:17.932Z,6.20
2023-05-03T07:32:44.717Z,6.67
2023-05-03T07:35:11.698Z,6.33
2023-05-03T07:37:38.703Z,6.33
2023-05-03T07:40:10.235Z,7.37
2023-05-03T07:42:36.745Z,7.10
2023-05-03T07:45:03.736Z,7.17
2023-05-03T07:47:30.580Z,5.50
2023-05-03T07:49:59.266Z,5.40
2023-05-03T07:52:25.832Z,5.60
2023-05-03T07:54:53.265Z,6.10
2023-05-03T07:57:20.311Z,7.30
2023-05-03T07:59:46.939Z,6.50
2023-05-03T08:02:13.811Z,6.73
2023-05-03T08:04:40.773Z,6.03
2023-05-03T08:07:07.605Z,5.73
2023-05-03T08:09:34.386Z,5.70
2023-05-03T08:12:03.361Z,5.80
2023-05-03T08:14:30.090Z,6.03
2023-05-03T08:16:57.048Z,6.60
2023-05-03T08:19:23.693Z,6.33
2023-05-03T08:21:50.316Z,6.83
2023-05-03T08:24:16.909Z,5.77
2023-05-03T08:26:45.115Z,6.60
2023-05-03T08:29:11.734Z,5.63
2023-05-03T08:31:38.732Z,6.00
2023-05-03T08:34:07.247Z,5.30
2023-05-03T08:36:34.798Z,5.60
2023-05-03T08:39:03.729Z,4.80
2023-05-03T08:41:39.060Z,5.00
2023-05-03T08:44:08.523Z,4.57
2023-05-03T08:46:37.504Z,4.43
2023-05-03T08:49:04.571Z,5.60
2023-05-03T08:51:31.845Z,5.27
2023-05-03T08:53:59.391Z,4.13
2023-05-03T08:56:30.301Z,4.73
2023-05-03T08:58:58.271Z,4.73
2023-05-03T09:01:25.349Z,4.90
2023-05-03T09:03:52.648Z,5.07
2023-05-03T09:06:25.992Z,5.17
2023-05-03T09:08:53.119Z,4.23
2023-05-03T09:11:31.321Z,4.80
2023-05-03T09:14:14.879Z,4.43
2023-05-03T09:16:44.665Z,4.17
2023-05-03T09:19:15.117Z,4.40
2023-05-03T09:21:43.790Z,5.13
2023-05-03T09:24:17.357Z,6.60
2023-05-03T09:26:45.891Z,5.50
2023-05-03T09:29:34.606Z,4.77
2023-05-03T09:32:05.696Z,5.20
2023-05-03T09:34:33.510Z,5.67
2023-05-03T09:37:00.255Z,6.60
2023-05-03T09:39:26.837Z,5.50
2023-05-03T09:41:54.137Z,6.93
2023-05-03T09:44:20.819Z,6.40
2023-05-03T09:47:03.813Z,5.70
2023-05-03T09:49:34.386Z,6.60
2023-05-03T09:52:01.858Z,6.83
2023-05-03T09:54:29.002Z,6.20
2023-05-03T09:56:55.917Z,6.13
2023-05-03T09:59:22.505Z,6.70
2023-05-03T10:01:50.859Z,7.00
2023-05-03T10:04:19.869Z,7.50
2023-05-03T10:06:49.303Z,7.17
2023-05-03T10:09:21.869Z,7.70
2023-05-03T10:11:51.179Z,8.37
2023-05-03T10:14:18.014Z,6.97
2023-05-03T10:16:49.852Z,8.60
2023-05-03T10:19:24.033Z,9.77
2023-05-03T10:22:06.625Z,8.60
2023-05-03T10:24:37.879Z,7.33
2023-05-03T10:27:08.774Z,9.30
2023-05-03T10:29:35.982Z,7.87
2023-05-03T10:32:04.005Z,7.67
2023-05-03T10:34:32.619Z,8.50
2023-05-03T10:37:02.374Z,7.87
2023-05-03T10:39:29.504Z,8.20
2023-05-03T10:42:03.846Z,7.20
2023-05-03T10:44:55.029Z,7.80
2023-05-03T10:47:24.398Z,8.37
2023-05-03T10:50:16.861Z,7.43
2023-05-03T10:52:43.461Z,7.83
2023-05-03T10:55:10.602Z,7.47
2023-05-03T10:57:40.291Z,7.53
2023-05-03T11:00:34.193Z,7.70
2023-05-03T11:03:15.739Z,7.60
2023-05-03T11:05:42.930Z,8.00
2023-05-03T11:08:15.183Z,8.10
2023-05-03T11:10:42.525Z,7.77
2023-05-03T11:13:09.160Z,6.70
2023-05-03T11:15:36.355Z,9.03
2023-05-03T11:18:03.656Z,8.10
2023-05-03T11:20:30.402Z,9.77
2023-05-03T11:22:57.233Z,8.80
2023-05-03T11:25:24.095Z,7.73
2023-05-03T11:27:51.063Z,9.97
2023-05-03T11:30:18.140Z,7.10
2023-05-03T11:32:45.237Z,7.73
2023-05-03T11:35:15.679Z,8.13
2023-05-03T11:37:43.271Z,7.80
2023-05-03T11:40:17.612Z,6.80
2023-05-03T11:43:00.926Z,5.77
2023-05-03T11:45:46.241Z,6.17
2023-05-03T11:48:14.329Z,5.80
2023-05-03T11:50:55.460Z,7.00
2023-05-03T11:53:23.454Z,6.77
2023-05-03T11:55:52.106Z,6.43
2023-05-03T11:58:27.095Z,5.07
2023-05-03T12:00:56.209Z,7.20
2023-05-03T12:03:37.277Z,7.00
2023-05-03T12:06:05.243Z,6.70
2023-05-03T12:08:36.630Z,6.30
2023-05-03T12:11:06.601Z,6.17
2023-05-03T12:13:38.303Z,7.00
2023-05-03T12:16:11.750Z,6.67
2023-05-03T12:19:02.837Z,6.90
2023-05-03T12:21:59.271Z,6.53
2023-05-03T12:24:38.712Z,7.43
2023-05-03T12:27:08.204Z,7.03
2023-05-03T12:29:35.883Z,6.60
2023-05-03T12:32:04.432Z,7.50
2023-05-03T12:34:35.092Z,6.10
2023-05-03T12:37:04.911Z,6.90
2023-05-03T12:39:33.399Z,6.70
2023-05-03T12:44:34.359Z,6.23
2023-05-03T12:47:02.196Z,6.23
2023-05-03T12:49:29.358Z,6.00
2023-05-03T12:52:21.935Z,6.60
2023-05-03T12:54:49.173Z,6.00
2023-05-03T12:57:22.086Z,7.00
2023-05-03T12:59:55.151Z,6.20
2023-05-03T13:04:59.643Z,6.50
2023-05-03T13:07:32.033Z,5.57
2023-05-03T13:12:29.561Z,5.00
2023-05-03T13:14:56.232Z,5.20
2023-05-03T13:17:23.454Z,4.80
2023-05-03T13:19:51.447Z,4.33
2023-05-03T13:22:18.555Z,4.97
2023-05-03T13:24:47.228Z,5.67
2023-05-03T13:27:14.523Z,5.10
2023-05-03T13:29:41.931Z,4.90
2023-05-03T13:32:09.591Z,5.07
2023-05-03T13:34:37.085Z,4.50
2023-05-03T13:37:06.537Z,4.83
2023-05-03T13:39:33.234Z,4.57
2023-05-03T13:41:59.818Z,5.93
2023-05-03T13:44:26.922Z,5.43
2023-05-03T13:46:54.001Z,4.23
2023-05-03T13:49:20.991Z,4.90
2023-05-03T13:51:48.251Z,5.53
2023-05-03T13:54:14.896Z,5.10
2023-05-03T13:56:43.049Z,5.60
2023-05-03T13:59:12.403Z,5.87
2023-05-03T14:01:39.485Z,4.80
2023-05-03T14:04:06.825Z,4.97
2023-05-03T14:06:34.156Z,5.27
2023-05-03T14:09:01.992Z,5.57
2023-05-03T14:11:30.630Z,4.80
2023-05-03T14:13:58.734Z,5.20
2023-05-03T14:16:40.295Z,5.50
2023-05-03T14:19:10.608Z,5.30
2023-05-03T14:21:38.033Z,5.10
2023-05-03T14:24:06.869Z,5.27
2023-05-03T14:26:37.070Z,4.73
2023-05-03T14:29:04.303Z,6.00
2023-05-03T14:31:30.923Z,6.00
2023-05-03T14:33:57.673Z,5.90
2023-05-03T14:36:24.348Z,5.20
2023-05-03T14:38:50.993Z,5.63
2023-05-03T14:41:17.722Z,5.70
2023-05-03T14:43:44.353Z,5.60
2023-05-03T14:46:11.084Z,4.80
2023-05-03T14:48:38.206Z,4.50
2023-05-03T14:51:05.559Z,5.27
2023-05-03T14:53:32.514Z,5.07
2023-05-03T14:55:59.691Z,4.77
2023-05-03T14:58:26.288Z,4.70
2023-05-03T15:00:53.306Z,5.47
2023-05-03T15:03:20.008Z,4.90
2023-05-03T15:05:48.372Z,5.00
2023-05-03T15:08:17.003Z,5.27
2023-05-03T15:10:47.809Z,5.63
2023-05-03T15:13:15.947Z,6.20
2023-05-03T15:15:43.725Z,5.20
2023-05-03T15:18:11.117Z,5.33
2023-05-03T15:20:38.707Z,5.33
2023-05-03T15:23:06.123Z,5.20
2023-05-03T15:25:33.017Z,5.30
2023-05-03T15:28:02.881Z,5.90
2023-05-03T15:30:31.313Z,5.30
2023-05-03T15:32:58.144Z,4.90
2023-05-03T15:35:24.951Z,5.23
2023-05-03T15:37:51.638Z,4.87
2023-05-03T15:40:18.728Z,4.90
2023-05-03T15:42:45.500Z,5.50
2023-05-03T15:45:13.369Z,5.87
2023-05-03T15:47:40.168Z,5.60
2023-05-03T15:50:07.965Z,5.20
2023-05-03T15:52:35.292Z,4.80
2023-05-03T15:55:01.996Z,5.50
2023-05-03T15:57:30.200Z,6.40
2023-05-03T15:59:57.477Z,5.40
2023-05-03T16:02:24.372Z,6.03
2023-05-03T16:04:51.182Z,5.60
2023-05-03T16:07:18.237Z,5.20
2023-05-03T16:09:46.248Z,4.80
2023-05-03T16:12:13.007Z,5.30
2023-05-03T16:14:40.035Z,5.67
2023-05-03T16:17:06.683Z,5.30
2023-05-03T16:19:33.349Z,5.30
2023-05-03T16:22:00.175Z,5.30
2023-05-03T16:24:27.028Z,5.40
2023-05-03T16:26:53.703Z,5.40
2023-05-03T16:29:21.226Z,5.63
2023-05-03T16:31:48.088Z,5.10
2023-05-03T16:34:14.847Z,5.47
2023-05-03T16:36:45.421Z,5.23
2023-05-03T16:39:12.693Z,5.17
2023-05-03T16:41:39.703Z,6.40
2023-05-03T16:44:07.199Z,6.90
2023-05-03T16:46:36.229Z,8.00
2023-05-03T16:49:03.628Z,6.70
2023-05-03T16:51:30.345Z,5.10
2023-05-03T16:53:58.436Z,5.27
2023-05-03T16:56:26.447Z,4.63
2023-05-03T16:58:53.626Z,5.37
2023-05-03T17:01:20.317Z,5.40
2023-05-03T17:03:47.127Z,5.10
2023-05-03T17:06:13.858Z,4.73
2023-05-03T17:08:40.686Z,14.07
2023-05-03T17:11:09.003Z,7.20
2023-05-03T17:13:36.744Z,6.10
2023-05-03T17:16:12.636Z,5.10
2023-05-03T17:18:40.619Z,5.17
2023-05-03T17:21:08.240Z,4.27
2023-05-03T17:23:36.367Z,4.73
2023-05-03T17:26:04.590Z,5.67
2023-05-03T17:28:32.894Z,4.57
2023-05-03T17:30:59.726Z,5.27
2023-05-03T17:33:26.898Z,5.93
2023-05-03T17:35:54.371Z,7.20
2023-05-03T17:38:21.253Z,9.60
2023-05-03T17:40:48.044Z,10.90
2023-05-03T17:43:18.172Z,8.40
2023-05-03T17:45:47.503Z,7.17
2023-05-03T17:48:14.654Z,5.60
2023-05-03T17:50:43.149Z,4.70
2023-05-03T17:53:09.796Z,5.53
2023-05-03T17:55:38.349Z,6.03
2023-05-03T17:58:06.485Z,5.20
2023-05-03T18:00:34.014Z,5.60
2023-05-03T18:03:01.199Z,4.90
2023-05-03T18:05:34.143Z,6.17
2023-05-03T18:08:01.763Z,7.10
2023-05-03T18:10:28.387Z,6.37
2023-05-03T18:12:55.224Z,5.30
2023-05-03T18:15:21.914Z,5.70
2023-05-03T18:17:48.644Z,5.37
2023-05-03T18:20:16.097Z,5.70
2023-05-03T18:22:44.037Z,4.97
2023-05-03T18:25:10.626Z,6.40
2023-05-03T18:27:37.942Z,6.10
2023-05-03T18:30:07.040Z,6.50
2023-05-03T18:32:35.333Z,4.73
2023-05-03T18:35:02.932Z,4.50
2023-05-03T18:37:29.662Z,5.10
2023-05-03T18:39:56.330Z,5.40
2023-05-03T18:42:23.128Z,5.40
2023-05-03T18:44:49.881Z,4.90
2023-05-03T18:47:20.987Z,6.33
2023-05-03T18:49:52.938Z,6.13
2023-05-03T18:52:20.863Z,5.87
2023-05-03T18:54:48.033Z,8.00
2023-05-03T18:57:15.079Z,6.00
2023-05-03T18:59:52.338Z,6.33
2023-05-03T19:02:25.424Z,5.80
2023-05-03T19:04:52.716Z,6.47
2023-05-03T19:07:19.851Z,5.93
2023-05-03T19:09:46.500Z,6.27
2023-05-03T19:12:13.870Z,5.80
2023-05-03T19:14:43.747Z,6.47
2023-05-03T19:17:10.372Z,6.87
2023-05-03T19:19:37.056Z,9.20
2023-05-03T19:22:03.805Z,9.20
2023-05-03T19:24:31.929Z,6.30
2023-05-03T19:26:58.687Z,6.80
2023-05-03T19:29:25.908Z,6.57
2023-05-03T19:31:56.465Z,6.90
2023-05-03T19:34:23.182Z,6.50
2023-05-03T19:36:50.315Z,5.63
2023-05-03T19:39:17.015Z,5.90
2023-05-03T19:41:43.686Z,7.23
2023-05-03T19:44:10.510Z,5.80
2023-05-03T19:46:37.321Z,6.33
2023-05-03T19:49:04.275Z,7.00
2023-05-03T19:51:31.611Z,6.13
2023-05-03T19:54:01.542Z,6.53
2023-05-03T19:56:28.240Z,7.10
2023-05-03T19:58:57.917Z,8.80
2023-05-03T20:01:24.473Z,9.63
2023-05-03T20:03:53.584Z,10.33
2023-05-03T20:06:20.943Z,12.00
2023-05-03T20:08:47.713Z,17.33
2023-05-03T20:11:14.370Z,18.67
2023-05-03T20:13:40.969Z,13.13
2023-05-03T20:16:08.528Z,8.83
2023-05-03T20:18:35.678Z,8.63
2023-05-03T20:21:03.792Z,8.00
2023-05-03T20:23:30.632Z,8.30
2023-05-03T20:25:57.305Z,8.70
2023-05-03T20:28:24.229Z,9.10
2023-05-03T20:30:51.808Z,9.10
2023-05-03T20:33:18.460Z,8.13
2023-05-03T20:35:45.268Z,8.97
2023-05-03T20:38:12.001Z,10.30
2023-05-03T20:40:39.042Z,8.67
2023-05-03T20:43:05.753Z,7.10
2023-05-03T20:45:32.505Z,7.17
2023-05-03T20:47:59.117Z,8.80
2023-05-03T20:50:25.941Z,8.10
2023-05-03T20:52:52.627Z,7.67
2023-05-03T20:55:19.432Z,7.30
2023-05-03T20:57:46.288Z,7.97
2023-05-03T21:00:14.869Z,7.90
2023-05-03T21:02:42.963Z,7.80
2023-05-03T21:05:10.633Z,8.03
2023-05-03T21:07:38.010Z,7.80
2023-05-03T21:10:06.313Z,7.00
2023-05-03T21:12:33.329Z,6.83
2023-05-03T21:15:01.024Z,6.63
2023-05-03T21:17:27.895Z,7.40
2023-05-03T21:19:54.559Z,7.63
2023-05-03T21:22:21.347Z,5.80
2023-05-03T21:24:47.991Z,6.30
2023-05-03T21:27:14.733Z,6.27
2023-05-03T21:29:41.673Z,6.23
2023-05-03T21:32:08.482Z,6.77
2023-05-03T21:34:35.157Z,7.30
2023-05-03T21:37:01.891Z,6.67
2023-05-03T21:39:28.760Z,6.00
2023-05-03T21:41:55.556Z,6.00
2023-05-03T21:44:22.243Z,6.70
2023-05-03T21:46:49.123Z,8.40
2023-05-03T21:49:16.145Z,7.20
2023-05-03T21:51:45.233Z,5.63
2023-05-03T21:54:11.932Z,5.50
2023-05-03T21:56:38.753Z,6.00
2023-05-03T21:59:05.926Z,6.03
2023-05-03T22:01:32.606Z,6.30
2023-05-03T22:03:59.937Z,5.93
2023-05-03T22:06:26.967Z,6.40
2023-05-03T22:08:53.898Z,6.00
2023-05-03T22:11:21.093Z,5.50
2023-05-03T22:14:06.954Z,6.50
2023-05-03T22:16:34.619Z,6.00
2023-05-03T22:19:01.452Z,5.90
2023-05-03T22:21:28.409Z,4.73
2023-05-03T22:23:55.333Z,6.23
2023-05-03T22:26:24.359Z,6.03
2023-05-03T22:28:51.260Z,6.50
2023-05-03T22:31:17.990Z,6.70
2023-05-03T22:33:45.291Z,7.60
2023-05-03T22:36:12.497Z,6.70
2023-05-03T22:38:41.260Z,5.83
2023-05-03T22:41:09.287Z,6.20
2023-05-03T22:43:36.004Z,6.77
2023-05-03T22:46:02.799Z,6.30
2023-05-03T22:48:32.356Z,7.33
2023-05-03T22:50:59.385Z,6.03
2023-05-03T22:53:26.337Z,6.97
2023-05-03T22:56:01.847Z,7.77
2023-05-03T22:58:28.794Z,7.50
2023-05-03T23:00:56.013Z,6.57
2023-05-03T23:03:23.255Z,5.00
2023-05-03T23:05:51.975Z,5.63
2023-05-03T23:08:18.935Z,5.40
2023-05-03T23:10:45.686Z,7.07
2023-05-03T23:13:12.495Z,5.90
2023-05-03T23:15:39.241Z,5.30
2023-05-03T23:18:06.461Z,6.33
2023-05-03T23:20:33.131Z,6.57
2023-05-03T23:22:59.768Z,5.47
2023-05-03T23:25:26.884Z,4.23
2023-05-03T23:27:54.299Z,4.43
2023-05-03T23:30:21.807Z,5.60
2023-05-03T23:32:49.395Z,5.03
2023-05-03T23:35:16.682Z,5.40
2023-05-03T23:37:43.350Z,4.60
2023-05-03T23:40:13.168Z,5.63
2023-05-03T23:42:41.579Z,5.50
2023-05-03T23:45:09.846Z,6.20
2023-05-03T23:47:36.964Z,5.87
2023-05-03T23:50:04.470Z,8.23
2023-05-03T23:52:31.307Z,8.10
2023-05-03T23:54:58.142Z,7.47
2023-05-03T23:57:24.768Z,7.07
2023-05-03T23:59:51.471Z,7.63
